»·PEaware :: N7274H KSNA-KCRQ

N7274H :: KSNA-KCRQ

FLIGHT INFORMATION

Flight Status: Arrived
Operator: Privately registered:
United States
More flights under this callsign
Pilot: Steven Duran D. (32271)
Aircraft: CESSNA 172 SKYHAWK
(C172)
More flights by this aircraft type
Origin: KSNA John Wayne-Orange Co
United States
Destination: KCRQ McClellan-Palomar
United States
More flights between these airports :: More routes between these airports
Route: V23 OCN
File this flight plan on PilotEdge
Remarks:
Altitude:
(Current/Filed)
5,000ft
Speed:
(Current/Filed)
108kts
Departed: 03-Jan-21 11:07 AM
Arrived: 03-Jan-21 11:48 AM
Distance/Time
Traveled:
44nm/0:41
Distance/Time
To Go:
Arrived

Flight Plot

Page will automatically refresh every two minutes.


Map Options




Map Legend


Flown Route
Filed Route
Departure Airport
Arrival Airport
Navaid (VOR, NDB)
Fix

Horizontal Profiles

Position Reports

Time Latitude Longitude Heading Altitude Ground
Speed
03-Jan-21 10:48 33.675407 -117.871527 220 59ft 0kts
03-Jan-21 10:49 33.675407 -117.871527 220 59ft 0kts
03-Jan-21 10:50 33.675401 -117.871532 219 59ft 0kts
03-Jan-21 10:51 33.675398 -117.871536 219 59ft 0kts
03-Jan-21 10:52 33.675395 -117.871538 219 59ft 0kts
03-Jan-21 10:53 33.675393 -117.871541 219 59ft 0kts
03-Jan-21 10:54 33.675390 -117.871544 219 59ft 0kts
03-Jan-21 10:55 33.675399 -117.871535 219 59ft 0kts
03-Jan-21 10:57 33.675396 -117.871538 219 59ft 0kts
03-Jan-21 10:57 33.675394 -117.871540 219 59ft 0kts
03-Jan-21 10:58 33.675391 -117.871543 219 59ft 0kts
03-Jan-21 10:59 33.675388 -117.871546 219 59ft 0kts
03-Jan-21 11:00 33.675402 -117.871532 220 59ft 0kts
03-Jan-21 11:01 33.675399 -117.871534 220 59ft 0kts
03-Jan-21 11:02 33.675397 -117.871537 220 59ft 0kts
03-Jan-21 11:03 33.675444 -117.870529 25 59ft 13kts
03-Jan-21 11:04 33.680562 -117.867384 25 59ft 18kts
03-Jan-21 11:05 33.680840 -117.866475 117 59ft 0kts
03-Jan-21 11:06 33.669565 -117.872663 209 403ft 77kts
03-Jan-21 11:07 33.647683 -117.878049 185 1388ft 81kts
03-Jan-21 11:08 33.625072 -117.881302 185 2610ft 83kts
03-Jan-21 11:09 33.601840 -117.884608 189 3840ft 85kts
03-Jan-21 11:10 33.577396 -117.888136 188 4697ft 90kts
03-Jan-21 11:11 33.557186 -117.872784 111 5101ft 113kts
03-Jan-21 11:12 33.543916 -117.834813 111 4982ft 128kts
03-Jan-21 11:13 33.530368 -117.796026 111 5020ft 126kts
03-Jan-21 11:14 33.516619 -117.757106 111 5022ft 126kts
03-Jan-21 11:15 33.501747 -117.722143 131 5011ft 131kts
03-Jan-21 11:16 33.477744 -117.694303 135 5007ft 132kts
03-Jan-21 11:17 33.451285 -117.663495 135 5001ft 131kts
03-Jan-21 11:18 33.426412 -117.634399 135 5002ft 121kts
03-Jan-21 11:19 33.409114 -117.601499 103 5011ft 121kts
03-Jan-21 11:20 33.400768 -117.562665 102 5002ft 119kts
03-Jan-21 11:21 33.392108 -117.522714 102 5001ft 125kts
03-Jan-21 11:22 33.383577 -117.483546 102 5000ft 120kts
03-Jan-21 11:23 33.375087 -117.444825 102 5000ft 120kts
03-Jan-21 11:24 33.366608 -117.406189 102 5000ft 120kts
03-Jan-21 11:25 33.358157 -117.367328 102 5004ft 120kts
03-Jan-21 11:26 33.349183 -117.327389 104 4970ft 124kts
03-Jan-21 11:27 33.339798 -117.288434 104 4942ft 123kts
03-Jan-21 11:28 33.330900 -117.248880 103 5014ft 125kts
03-Jan-21 11:29 33.321366 -117.207743 103 5015ft 121kts
03-Jan-21 11:30 33.312088 -117.167295 99 4972ft 127kts
03-Jan-21 11:31 33.303778 -117.126867 102 4955ft 124kts
03-Jan-21 11:32 33.295270 -117.089502 103 4982ft 112kts
03-Jan-21 11:33 33.283907 -117.055549 143 5001ft 111kts
03-Jan-21 11:34 33.255876 -117.038154 154 5018ft 114kts
03-Jan-21 11:35 33.226231 -117.020986 154 5041ft 122kts
03-Jan-21 11:36 33.195805 -117.002064 152 5002ft 118kts
03-Jan-21 11:37 33.165197 -116.986104 183 4823ft 117kts
03-Jan-21 11:38 33.155273 -117.012801 284 4232ft 93kts
03-Jan-21 11:39 33.161105 -117.042007 285 3760ft 87kts
03-Jan-21 11:40 33.160708 -117.072805 263 3622ft 96kts
03-Jan-21 11:41 33.156254 -117.103191 267 3482ft 96kts
03-Jan-21 11:42 33.151222 -117.132966 261 3027ft 91kts
03-Jan-21 11:43 33.147066 -117.162871 262 2266ft 97kts
03-Jan-21 11:44 33.141593 -117.193690 259 1708ft 95kts
03-Jan-21 11:45 33.137532 -117.223649 259 1228ft 90kts
03-Jan-21 11:46 33.132937 -117.253399 262 701ft 89kts
03-Jan-21 11:47 33.128805 -117.276896 259 303ft 34kts
03-Jan-21 11:48 33.127726 -117.279724 227 303ft 0kts
03-Jan-21 11:49 33.127725 -117.279726 227 303ft 0kts
03-Jan-21 11:50 33.127724 -117.279727 227 303ft 0kts
03-Jan-21 11:51 33.125775 -117.279766 166 303ft 2kts
03-Jan-21 11:52 33.125738 -117.279237 79 303ft 0kts

Navigation Log

Ident Type
Flight plan parsing failed, navigation log unavailable